sensor_id;sensor_type;location;lat;lon;timestamp;pressure;altitude;pressure_sealevel;temperature;humidity
64632;BME280;58358;50.936;0.246;2023-03-04T00:02:11;102391.17;;;2.77;61.55
64632;BME280;58358;50.936;0.246;2023-03-04T00:04:37;102391.44;;;3.17;60.02
64632;BME280;58358;50.936;0.246;2023-03-04T00:07:03;102392.30;;;2.91;60.53
64632;BME280;58358;50.936;0.246;2023-03-04T00:09:28;102389.06;;;3.29;59.13
64632;BME280;58358;50.936;0.246;2023-03-04T00:11:54;102387.96;;;3.21;58.99
64632;BME280;58358;50.936;0.246;2023-03-04T00:14:20;102388.40;;;3.35;57.91
64632;BME280;58358;50.936;0.246;2023-03-04T00:16:45;102390.01;;;4.02;56.49
64632;BME280;58358;50.936;0.246;2023-03-04T00:19:10;102385.78;;;4.26;55.06
64632;BME280;58358;50.936;0.246;2023-03-04T00:21:36;102387.54;;;4.15;56.60
64632;BME280;58358;50.936;0.246;2023-03-04T00:24:01;102385.81;;;2.42;59.25
64632;BME280;58358;50.936;0.246;2023-03-04T00:26:26;102382.12;;;3.12;59.81
64632;BME280;58358;50.936;0.246;2023-03-04T00:28:51;102384.02;;;3.77;58.17
64632;BME280;58358;50.936;0.246;2023-03-04T00:31:17;102378.53;;;3.25;58.16
64632;BME280;58358;50.936;0.246;2023-03-04T00:33:43;102377.62;;;2.95;60.22
64632;BME280;58358;50.936;0.246;2023-03-04T00:36:09;102378.86;;;2.56;61.45
64632;BME280;58358;50.936;0.246;2023-03-04T00:38:34;102374.25;;;3.06;61.02
64632;BME280;58358;50.936;0.246;2023-03-04T00:41:00;102370.88;;;3.00;60.30
64632;BME280;58358;50.936;0.246;2023-03-04T00:43:26;102371.07;;;2.55;62.63
64632;BME280;58358;50.936;0.246;2023-03-04T00:45:51;102370.56;;;1.95;64.54
64632;BME280;58358;50.936;0.246;2023-03-04T00:48:16;102368.88;;;1.60;65.52
64632;BME280;58358;50.936;0.246;2023-03-04T00:50:42;102370.02;;;2.88;62.41
64632;BME280;58358;50.936;0.246;2023-03-04T00:53:07;102370.73;;;2.01;64.29
64632;BME280;58358;50.936;0.246;2023-03-04T00:55:32;102370.19;;;0.97;68.45
64632;BME280;58358;50.936;0.246;2023-03-04T00:57:57;102370.29;;;2.05;66.12
64632;BME280;58358;50.936;0.246;2023-03-04T01:00:22;102372.02;;;2.21;64.77
64632;BME280;58358;50.936;0.246;2023-03-04T01:02:48;102370.58;;;3.39;62.07
64632;BME280;58358;50.936;0.246;2023-03-04T01:05:14;102369.99;;;3.34;60.94
64632;BME280;58358;50.936;0.246;2023-03-04T01:07:39;102367.31;;;3.04;61.59
64632;BME280;58358;50.936;0.246;2023-03-04T01:10:07;102369.14;;;3.06;61.03
64632;BME280;58358;50.936;0.246;2023-03-04T01:12:29;102368.64;;;3.21;61.42
64632;BME280;58358;50.936;0.246;2023-03-04T01:14:55;102373.24;;;4.71;56.03
64632;BME280;58358;50.936;0.246;2023-03-04T01:17:21;102374.88;;;4.70;55.37
64632;BME280;58358;50.936;0.246;2023-03-04T01:19:46;102368.19;;;4.76;54.45
64632;BME280;58358;50.936;0.246;2023-03-04T01:22:12;102374.05;;;3.89;57.30
64632;BME280;58358;50.936;0.246;2023-03-04T01:24:36;102371.48;;;3.48;58.94
64632;BME280;58358;50.936;0.246;2023-03-04T01:27:02;102371.68;;;3.74;58.29
64632;BME280;58358;50.936;0.246;2023-03-04T01:29:28;102367.22;;;3.50;58.44
64632;BME280;58358;50.936;0.246;2023-03-04T01:31:53;102367.40;;;3.55;59.58
64632;BME280;58358;50.936;0.246;2023-03-04T01:34:19;102371.49;;;2.68;63.16
64632;BME280;58358;50.936;0.246;2023-03-04T01:36:45;102370.00;;;2.63;63.38
64632;BME280;58358;50.936;0.246;2023-03-04T01:39:11;102368.10;;;2.42;63.57
64632;BME280;58358;50.936;0.246;2023-03-04T01:41:36;102369.17;;;1.83;65.94
64632;BME280;58358;50.936;0.246;2023-03-04T01:44:02;102364.28;;;3.46;61.70
64632;BME280;58358;50.936;0.246;2023-03-04T01:46:27;102364.46;;;2.28;63.17
64632;BME280;58358;50.936;0.246;2023-03-04T01:48:52;102368.67;;;4.13;58.96
64632;BME280;58358;50.936;0.246;2023-03-04T01:51:19;102361.45;;;3.97;58.23
64632;BME280;58358;50.936;0.246;2023-03-04T01:53:46;102360.95;;;2.70;60.82
64632;BME280;58358;50.936;0.246;2023-03-04T01:56:14;102359.28;;;2.35;63.89
64632;BME280;58358;50.936;0.246;2023-03-04T01:58:35;102354.22;;;2.02;63.68
64632;BME280;58358;50.936;0.246;2023-03-04T02:01:00;102355.69;;;1.05;68.91
64632;BME280;58358;50.936;0.246;2023-03-04T02:03:26;102353.50;;;2.31;65.98
64632;BME280;58358;50.936;0.246;2023-03-04T02:05:52;102352.11;;;3.20;62.72
64632;BME280;58358;50.936;0.246;2023-03-04T02:08:19;102348.36;;;3.04;61.32
64632;BME280;58358;50.936;0.246;2023-03-04T02:10:43;102349.16;;;2.73;62.76
64632;BME280;58358;50.936;0.246;2023-03-04T02:13:08;102344.84;;;2.33;66.13
64632;BME280;58358;50.936;0.246;2023-03-04T02:15:33;102347.81;;;1.78;68.22
64632;BME280;58358;50.936;0.246;2023-03-04T02:18:00;102345.01;;;0.91;72.07
64632;BME280;58358;50.936;0.246;2023-03-04T02:20:34;102350.72;;;1.29;72.13
64632;BME280;58358;50.936;0.246;2023-03-04T02:22:55;102345.12;;;0.75;72.38
64632;BME280;58358;50.936;0.246;2023-03-04T02:25:20;102347.51;;;2.49;67.79
64632;BME280;58358;50.936;0.246;2023-03-04T02:27:41;102343.07;;;2.23;67.59
64632;BME280;58358;50.936;0.246;2023-03-04T02:30:08;102345.96;;;1.85;68.91
64632;BME280;58358;50.936;0.246;2023-03-04T02:32:32;102345.17;;;2.17;67.18
64632;BME280;58358;50.936;0.246;2023-03-04T02:34:57;102344.51;;;2.95;65.31
64632;BME280;58358;50.936;0.246;2023-03-04T02:37:23;102346.42;;;4.12;60.35
64632;BME280;58358;50.936;0.246;2023-03-04T02:39:48;102345.41;;;3.71;60.60
64632;BME280;58358;50.936;0.246;2023-03-04T02:42:14;102342.08;;;3.21;63.65
64632;BME280;58358;50.936;0.246;2023-03-04T02:44:40;102337.94;;;2.53;64.82
64632;BME280;58358;50.936;0.246;2023-03-04T02:47:07;102329.83;;;1.04;70.51
64632;BME280;58358;50.936;0.246;2023-03-04T02:49:32;102330.89;;;1.25;70.63
64632;BME280;58358;50.936;0.246;2023-03-04T02:52:00;102329.58;;;1.33;70.15
64632;BME280;58358;50.936;0.246;2023-03-04T02:54:23;102330.89;;;1.40;71.67
64632;BME280;58358;50.936;0.246;2023-03-04T02:56:47;102330.06;;;1.33;71.30
64632;BME280;58358;50.936;0.246;2023-03-04T02:59:12;102323.30;;;0.83;72.48
64632;BME280;58358;50.936;0.246;2023-03-04T03:01:37;102327.20;;;1.47;72.73
64632;BME280;58358;50.936;0.246;2023-03-04T03:04:03;102325.43;;;1.73;68.81
64632;BME280;58358;50.936;0.246;2023-03-04T03:06:28;102328.29;;;1.57;69.38
64632;BME280;58358;50.936;0.246;2023-03-04T03:08:53;102331.79;;;2.06;67.99
64632;BME280;58358;50.936;0.246;2023-03-04T03:11:19;102324.48;;;1.22;70.44
64632;BME280;58358;50.936;0.246;2023-03-04T03:13:43;102314.79;;;1.00;72.34
64632;BME280;58358;50.936;0.246;2023-03-04T03:16:09;102320.21;;;1.35;72.70
64632;BME280;58358;50.936;0.246;2023-03-04T03:18:34;102322.96;;;0.54;76.09
64632;BME280;58358;50.936;0.246;2023-03-04T03:20:59;102319.10;;;1.58;72.46
64632;BME280;58358;50.936;0.246;2023-03-04T03:23:24;102314.42;;;2.60;69.00
64632;BME280;58358;50.936;0.246;2023-03-04T03:25:49;102311.92;;;3.35;64.86
64632;BME280;58358;50.936;0.246;2023-03-04T03:28:14;102309.47;;;2.61;63.76
64632;BME280;58358;50.936;0.246;2023-03-04T03:30:40;102308.77;;;3.31;63.36
64632;BME280;58358;50.936;0.246;2023-03-04T03:33:05;102308.97;;;2.71;64.83
64632;BME280;58358;50.936;0.246;2023-03-04T03:35:30;102308.25;;;2.95;64.65
64632;BME280;58358;50.936;0.246;2023-03-04T03:37:56;102308.56;;;3.40;63.64
64632;BME280;58358;50.936;0.246;2023-03-04T03:40:21;102307.42;;;2.79;64.27
64632;BME280;58358;50.936;0.246;2023-03-04T03:42:46;102308.62;;;1.45;69.18
64632;BME280;58358;50.936;0.246;2023-03-04T03:45:11;102308.79;;;2.52;65.70
64632;BME280;58358;50.936;0.246;2023-03-04T03:47:36;102309.90;;;3.07;63.76
64632;BME280;58358;50.936;0.246;2023-03-04T03:50:02;102310.54;;;1.87;67.11
64632;BME280;58358;50.936;0.246;2023-03-04T03:52:27;102311.02;;;2.69;65.07
64632;BME280;58358;50.936;0.246;2023-03-04T03:54:53;102313.89;;;3.44;62.13
64632;BME280;58358;50.936;0.246;2023-03-04T03:57:19;102309.00;;;2.64;65.15
64632;BME280;58358;50.936;0.246;2023-03-04T03:59:44;102306.92;;;2.84;63.96
64632;BME280;58358;50.936;0.246;2023-03-04T04:02:09;102311.32;;;1.71;67.36
64632;BME280;58358;50.936;0.246;2023-03-04T04:04:35;102311.62;;;1.37;69.53
64632;BME280;58358;50.936;0.246;2023-03-04T04:07:00;102315.24;;;2.14;69.18
64632;BME280;58358;50.936;0.246;2023-03-04T04:09:25;102319.16;;;1.86;68.74
64632;BME280;58358;50.936;0.246;2023-03-04T04:11:51;102318.04;;;1.34;70.72
64632;BME280;58358;50.936;0.246;2023-03-04T04:14:17;102318.21;;;0.43;74.35
64632;BME280;58358;50.936;0.246;2023-03-04T04:16:43;102323.79;;;1.34;73.87
64632;BME280;58358;50.936;0.246;2023-03-04T04:19:15;102320.33;;;1.27;70.73
64632;BME280;58358;50.936;0.246;2023-03-04T04:21:34;102326.03;;;2.30;68.67
64632;BME280;58358;50.936;0.246;2023-03-04T04:24:00;102327.41;;;2.62;65.96
64632;BME280;58358;50.936;0.246;2023-03-04T04:26:25;102321.97;;;0.73;71.75
64632;BME280;58358;50.936;0.246;2023-03-04T04:28:50;102329.32;;;0.46;74.82
64632;BME280;58358;50.936;0.246;2023-03-04T04:31:15;102320.22;;;1.47;73.06
64632;BME280;58358;50.936;0.246;2023-03-04T04:33:41;102317.69;;;0.71;73.51
64632;BME280;58358;50.936;0.246;2023-03-04T04:36:09;102321.72;;;0.86;73.37
64632;BME280;58358;50.936;0.246;2023-03-04T04:38:32;102324.62;;;1.31;70.95
64632;BME280;58358;50.936;0.246;2023-03-04T04:40:57;102323.10;;;2.22;67.58
64632;BME280;58358;50.936;0.246;2023-03-04T04:43:24;102325.95;;;3.04;64.32
64632;BME280;58358;50.936;0.246;2023-03-04T04:45:48;102315.77;;;2.66;64.12
64632;BME280;58358;50.936;0.246;2023-03-04T04:48:14;102320.95;;;2.05;68.39
64632;BME280;58358;50.936;0.246;2023-03-04T04:50:39;102321.67;;;2.58;65.93
64632;BME280;58358;50.936;0.246;2023-03-04T04:53:04;102326.05;;;2.54;66.56
64632;BME280;58358;50.936;0.246;2023-03-04T04:55:29;102321.17;;;1.80;69.32
64632;BME280;58358;50.936;0.246;2023-03-04T04:57:54;102320.36;;;2.81;66.61
64632;BME280;58358;50.936;0.246;2023-03-04T05:00:20;102325.29;;;2.55;66.41
64632;BME280;58358;50.936;0.246;2023-03-04T05:02:45;102324.43;;;2.45;66.84
64632;BME280;58358;50.936;0.246;2023-03-04T05:05:11;102324.23;;;2.11;68.11
64632;BME280;58358;50.936;0.246;2023-03-04T05:07:36;102324.01;;;2.25;66.90
64632;BME280;58358;50.936;0.246;2023-03-04T05:10:03;102326.79;;;2.79;65.36
64632;BME280;58358;50.936;0.246;2023-03-04T05:12:27;102329.47;;;3.20;62.48
64632;BME280;58358;50.936;0.246;2023-03-04T05:14:53;102335.65;;;4.07;61.32
64632;BME280;58358;50.936;0.246;2023-03-04T05:17:18;102333.08;;;3.52;61.74
64632;BME280;58358;50.936;0.246;2023-03-04T05:19:44;102334.24;;;2.23;66.18
64632;BME280;58358;50.936;0.246;2023-03-04T05:22:09;102333.21;;;2.01;67.36
64632;BME280;58358;50.936;0.246;2023-03-04T05:24:35;102334.87;;;3.02;63.88
64632;BME280;58358;50.936;0.246;2023-03-04T05:27:01;102335.89;;;3.70;62.35
64632;BME280;58358;50.936;0.246;2023-03-04T05:29:26;102334.77;;;3.50;61.40
64632;BME280;58358;50.936;0.246;2023-03-04T05:31:51;102337.33;;;3.81;61.34
64632;BME280;58358;50.936;0.246;2023-03-04T05:34:17;102337.11;;;3.33;62.33
64632;BME280;58358;50.936;0.246;2023-03-04T05:36:42;102338.23;;;1.96;67.65
64632;BME280;58358;50.936;0.246;2023-03-04T05:39:08;102338.91;;;1.12;71.16
64632;BME280;58358;50.936;0.246;2023-03-04T05:41:33;102338.63;;;1.89;69.48
64632;BME280;58358;50.936;0.246;2023-03-04T05:43:59;102343.78;;;1.33;70.46
64632;BME280;58358;50.936;0.246;2023-03-04T05:46:24;102340.15;;;2.32;69.08
64632;BME280;58358;50.936;0.246;2023-03-04T05:48:50;102340.29;;;1.68;70.86
64632;BME280;58358;50.936;0.246;2023-03-04T05:51:15;102342.84;;;2.18;69.28
64632;BME280;58358;50.936;0.246;2023-03-04T05:53:41;102341.21;;;1.95;69.96
64632;BME280;58358;50.936;0.246;2023-03-04T05:56:07;102345.70;;;1.68;71.03
64632;BME280;58358;50.936;0.246;2023-03-04T05:58:31;102347.34;;;1.08;71.73
64632;BME280;58358;50.936;0.246;2023-03-04T06:00:59;102350.64;;;1.65;70.03
64632;BME280;58358;50.936;0.246;2023-03-04T06:03:21;102351.87;;;1.76;72.09
64632;BME280;58358;50.936;0.246;2023-03-04T06:05:47;102347.34;;;2.65;67.42
64632;BME280;58358;50.936;0.246;2023-03-04T06:08:12;102344.93;;;2.30;67.15
64632;BME280;58358;50.936;0.246;2023-03-04T06:10:39;102342.12;;;2.70;66.23
64632;BME280;58358;50.936;0.246;2023-03-04T06:13:03;102343.19;;;1.55;68.84
64632;BME280;58358;50.936;0.246;2023-03-04T06:15:28;102348.38;;;1.94;68.19
64632;BME280;58358;50.936;0.246;2023-03-04T06:17:53;102343.90;;;2.31;68.13
64632;BME280;58358;50.936;0.246;2023-03-04T06:20:19;102345.52;;;2.10;69.21
64632;BME280;58358;50.936;0.246;2023-03-04T06:22:44;102348.85;;;2.12;69.17
64632;BME280;58358;50.936;0.246;2023-03-04T06:25:10;102345.77;;;1.69;71.18
64632;BME280;58358;50.936;0.246;2023-03-04T06:27:35;102351.89;;;2.03;70.77
64632;BME280;58358;50.936;0.246;2023-03-04T06:30:00;102354.99;;;1.41;73.05
64632;BME280;58358;50.936;0.246;2023-03-04T06:32:26;102354.45;;;2.67;68.71
64632;BME280;58358;50.936;0.246;2023-03-04T06:34:51;102352.25;;;1.89;70.96
64632;BME280;58358;50.936;0.246;2023-03-04T06:37:16;102352.79;;;2.36;70.06
64632;BME280;58358;50.936;0.246;2023-03-04T06:39:42;102352.89;;;1.80;72.52
64632;BME280;58358;50.936;0.246;2023-03-04T06:42:08;102353.49;;;1.78;71.03
64632;BME280;58358;50.936;0.246;2023-03-04T06:44:33;102357.12;;;1.46;71.54
64632;BME280;58358;50.936;0.246;2023-03-04T06:46:59;102358.17;;;2.24;70.70
64632;BME280;58358;50.936;0.246;2023-03-04T06:49:24;102362.85;;;2.67;69.25
64632;BME280;58358;50.936;0.246;2023-03-04T06:51:49;102361.27;;;1.49;71.15
64632;BME280;58358;50.936;0.246;2023-03-04T06:54:15;102360.26;;;2.13;71.21
64632;BME280;58358;50.936;0.246;2023-03-04T06:56:40;102365.25;;;1.26;75.43
64632;BME280;58358;50.936;0.246;2023-03-04T06:59:06;102369.67;;;1.68;74.36
64632;BME280;58358;50.936;0.246;2023-03-04T07:01:31;102370.47;;;1.95;70.98
64632;BME280;58358;50.936;0.246;2023-03-04T07:03:57;102372.46;;;1.12;74.08
64632;BME280;58358;50.936;0.246;2023-03-04T07:06:24;102375.07;;;1.56;73.48
64632;BME280;58358;50.936;0.246;2023-03-04T07:08:48;102376.56;;;2.26;71.37
64632;BME280;58358;50.936;0.246;2023-03-04T07:11:14;102379.25;;;1.70;71.51
64632;BME280;58358;50.936;0.246;2023-03-04T07:13:39;102379.52;;;1.56;71.39
64632;BME280;58358;50.936;0.246;2023-03-04T07:16:06;102381.93;;;2.60;67.86
64632;BME280;58358;50.936;0.246;2023-03-04T07:18:30;102383.22;;;3.29;65.04
64632;BME280;58358;50.936;0.246;2023-03-04T07:20:56;102385.28;;;3.16;65.17
64632;BME280;58358;50.936;0.246;2023-03-04T07:23:21;102386.12;;;3.26;63.12
64632;BME280;58358;50.936;0.246;2023-03-04T07:25:48;102382.06;;;2.24;67.00
64632;BME280;58358;50.936;0.246;2023-03-04T07:28:12;102383.39;;;3.13;67.05
64632;BME280;58358;50.936;0.246;2023-03-04T07:30:37;102382.41;;;2.33;68.16
64632;BME280;58358;50.936;0.246;2023-03-04T07:33:03;102379.83;;;2.44;68.28
64632;BME280;58358;50.936;0.246;2023-03-04T07:35:28;102385.79;;;2.43;67.31
64632;BME280;58358;50.936;0.246;2023-03-04T07:37:54;102385.26;;;3.43;64.49
64632;BME280;58358;50.936;0.246;2023-03-04T07:40:19;102383.68;;;3.64;64.24
64632;BME280;58358;50.936;0.246;2023-03-04T07:42:48;102386.56;;;2.65;64.23
64632;BME280;58358;50.936;0.246;2023-03-04T07:45:10;102389.72;;;1.97;68.06
64632;BME280;58358;50.936;0.246;2023-03-04T07:47:35;102391.01;;;3.36;63.43
64632;BME280;58358;50.936;0.246;2023-03-04T07:50:00;102392.59;;;2.61;65.98
64632;BME280;58358;50.936;0.246;2023-03-04T07:52:26;102397.42;;;2.16;66.23
64632;BME280;58358;50.936;0.246;2023-03-04T07:54:52;102398.02;;;2.01;67.24
64632;BME280;58358;50.936;0.246;2023-03-04T07:57:18;102397.56;;;3.43;64.44
64632;BME280;58358;50.936;0.246;2023-03-04T07:59:43;102400.41;;;2.41;64.87
64632;BME280;58358;50.936;0.246;2023-03-04T08:02:09;102397.64;;;1.68;67.82
64632;BME280;58358;50.936;0.246;2023-03-04T08:04:34;102404.95;;;1.00;71.15
64632;BME280;58358;50.936;0.246;2023-03-04T08:06:59;102407.75;;;1.39;70.39
64632;BME280;58358;50.936;0.246;2023-03-04T08:09:25;102413.02;;;1.72;68.14
64632;BME280;58358;50.936;0.246;2023-03-04T08:11:50;102410.34;;;2.66;65.70
64632;BME280;58358;50.936;0.246;2023-03-04T08:14:15;102408.83;;;3.04;64.17
64632;BME280;58358;50.936;0.246;2023-03-04T08:16:41;102412.71;;;2.36;64.80
64632;BME280;58358;50.936;0.246;2023-03-04T08:19:09;102411.16;;;2.72;64.67
64632;BME280;58358;50.936;0.246;2023-03-04T08:21:33;102410.54;;;2.96;62.88
64632;BME280;58358;50.936;0.246;2023-03-04T08:23:59;102410.11;;;4.18;60.77
64632;BME280;58358;50.936;0.246;2023-03-04T08:26:26;102410.05;;;3.98;58.72
64632;BME280;58358;50.936;0.246;2023-03-04T08:28:49;102405.80;;;3.58;61.58
64632;BME280;58358;50.936;0.246;2023-03-04T08:31:17;102408.21;;;4.19;58.34
64632;BME280;58358;50.936;0.246;2023-03-04T08:33:40;102406.73;;;3.86;58.49
64632;BME280;58358;50.936;0.246;2023-03-04T08:36:06;102407.83;;;4.39;57.75
64632;BME280;58358;50.936;0.246;2023-03-04T08:38:30;102407.91;;;3.37;61.26
64632;BME280;58358;50.936;0.246;2023-03-04T08:40:57;102407.52;;;3.63;61.05
64632;BME280;58358;50.936;0.246;2023-03-04T08:43:22;102411.77;;;4.48;59.02
64632;BME280;58358;50.936;0.246;2023-03-04T08:45:47;102408.13;;;3.70;58.89
64632;BME280;58358;50.936;0.246;2023-03-04T08:48:12;102409.67;;;3.47;61.08
64632;BME280;58358;50.936;0.246;2023-03-04T08:50:38;102415.61;;;4.30;59.38
64632;BME280;58358;50.936;0.246;2023-03-04T08:53:03;102412.95;;;3.77;60.88
64632;BME280;58358;50.936;0.246;2023-03-04T08:55:29;102412.72;;;3.63;59.67
64632;BME280;58358;50.936;0.246;2023-03-04T08:57:54;102411.80;;;5.01;56.87
64632;BME280;58358;50.936;0.246;2023-03-04T09:00:20;102409.37;;;4.76;56.46
64632;BME280;58358;50.936;0.246;2023-03-04T09:02:45;102409.35;;;4.24;57.83
64632;BME280;58358;50.936;0.246;2023-03-04T09:05:11;102413.01;;;4.46;59.44
64632;BME280;58358;50.936;0.246;2023-03-04T09:07:36;102408.80;;;3.70;61.13
64632;BME280;58358;50.936;0.246;2023-03-04T09:10:03;102410.19;;;3.89;61.85
64632;BME280;58358;50.936;0.246;2023-03-04T09:12:27;102408.50;;;2.49;64.96
64632;BME280;58358;50.936;0.246;2023-03-04T09:14:53;102404.39;;;3.96;61.99
64632;BME280;58358;50.936;0.246;2023-03-04T09:17:18;102407.43;;;3.39;63.92
64632;BME280;58358;50.936;0.246;2023-03-04T09:19:44;102409.80;;;2.80;65.49
64632;BME280;58358;50.936;0.246;2023-03-04T09:22:09;102409.55;;;3.04;64.82
64632;BME280;58358;50.936;0.246;2023-03-04T09:24:35;102402.13;;;4.29;62.12
64632;BME280;58358;50.936;0.246;2023-03-04T09:27:00;102399.49;;;5.11;58.58
64632;BME280;58358;50.936;0.246;2023-03-04T09:29:26;102397.55;;;4.83;58.58
64632;BME280;58358;50.936;0.246;2023-03-04T09:31:51;102396.78;;;4.77;58.63
64632;BME280;58358;50.936;0.246;2023-03-04T09:34:17;102393.73;;;5.45;56.05
64632;BME280;58358;50.936;0.246;2023-03-04T09:36:42;102393.88;;;5.61;56.34
64632;BME280;58358;50.936;0.246;2023-03-04T09:39:07;102394.25;;;4.66;58.60
64632;BME280;58358;50.936;0.246;2023-03-04T09:41:38;102391.90;;;4.46;59.37
64632;BME280;58358;50.936;0.246;2023-03-04T09:43:59;102391.58;;;5.46;57.37
64632;BME280;58358;50.936;0.246;2023-03-04T09:46:31;102390.69;;;3.61;62.66
64632;BME280;58358;50.936;0.246;2023-03-04T09:48:51;102392.15;;;3.87;64.47
64632;BME280;58358;50.936;0.246;2023-03-04T09:51:21;102392.66;;;3.50;63.76
64632;BME280;58358;50.936;0.246;2023-03-04T09:53:46;102399.62;;;3.12;65.52
64632;BME280;58358;50.936;0.246;2023-03-04T09:56:05;102400.83;;;3.29;65.67
64632;BME280;58358;50.936;0.246;2023-03-04T09:58:41;102401.62;;;3.63;64.46
64632;BME280;58358;50.936;0.246;2023-03-04T10:01:02;102401.98;;;4.36;62.81
64632;BME280;58358;50.936;0.246;2023-03-04T10:03:24;102397.29;;;3.93;63.08
64632;BME280;58358;50.936;0.246;2023-03-04T10:05:52;102398.10;;;3.94;65.39
64632;BME280;58358;50.936;0.246;2023-03-04T10:08:26;102396.51;;;4.22;64.15
64632;BME280;58358;50.936;0.246;2023-03-04T10:10:39;102397.96;;;3.76;64.87
64632;BME280;58358;50.936;0.246;2023-03-04T10:13:04;102401.95;;;4.49;62.48
64632;BME280;58358;50.936;0.246;2023-03-04T10:15:34;102393.15;;;3.31;64.63
64632;BME280;58358;50.936;0.246;2023-03-04T10:17:59;102396.71;;;3.97;63.83
64632;BME280;58358;50.936;0.246;2023-03-04T10:20:23;102398.29;;;4.30;63.12
64632;BME280;58358;50.936;0.246;2023-03-04T10:22:47;102397.85;;;4.26;63.08
64632;BME280;58358;50.936;0.246;2023-03-04T10:25:17;102399.78;;;3.80;64.02
64632;BME280;58358;50.936;0.246;2023-03-04T10:27:37;102399.19;;;3.71;64.10
64632;BME280;58358;50.936;0.246;2023-03-04T10:30:02;102402.79;;;3.54;66.11
64632;BME280;58358;50.936;0.246;2023-03-04T10:32:27;102406.19;;;3.78;64.81
64632;BME280;58358;50.936;0.246;2023-03-04T10:34:52;102399.89;;;3.44;65.02
64632;BME280;58358;50.936;0.246;2023-03-04T10:37:18;102397.34;;;3.48;65.93
64632;BME280;58358;50.936;0.246;2023-03-04T10:39:45;102397.19;;;4.18;63.97
64632;BME280;58358;50.936;0.246;2023-03-04T10:42:25;102392.62;;;4.65;61.66
64632;BME280;58358;50.936;0.246;2023-03-04T10:44:34;102391.50;;;4.48;61.78
64632;BME280;58358;50.936;0.246;2023-03-04T10:47:00;102392.05;;;4.61;62.05
64632;BME280;58358;50.936;0.246;2023-03-04T10:49:27;102389.79;;;3.34;66.93
64632;BME280;58358;50.936;0.246;2023-03-04T10:51:53;102392.99;;;3.50;66.60
64632;BME280;58358;50.936;0.246;2023-03-04T10:54:23;102393.02;;;3.81;64.55
64632;BME280;58358;50.936;0.246;2023-03-04T10:56:52;102388.82;;;3.98;66.08
64632;BME280;58358;50.936;0.246;2023-03-04T11:01:34;102386.23;;;4.06;66.68
64632;BME280;58358;50.936;0.246;2023-03-04T11:03:59;102382.79;;;3.64;67.60
64632;BME280;58358;50.936;0.246;2023-03-04T11:06:25;102383.17;;;3.58;68.64
64632;BME280;58358;50.936;0.246;2023-03-04T11:08:53;102386.96;;;3.00;70.45
64632;BME280;58358;50.936;0.246;2023-03-04T11:11:22;102390.54;;;2.79;74.11
64632;BME280;58358;50.936;0.246;2023-03-04T11:13:49;102391.48;;;2.38;74.15
64632;BME280;58358;50.936;0.246;2023-03-04T11:18:37;102390.39;;;2.93;72.84
64632;BME280;58358;50.936;0.246;2023-03-04T11:20:57;102386.73;;;3.42;72.53
64632;BME280;58358;50.936;0.246;2023-03-04T11:23:29;102385.14;;;4.07;70.54
64632;BME280;58358;50.936;0.246;2023-03-04T11:25:50;102380.72;;;4.84;67.96
64632;BME280;58358;50.936;0.246;2023-03-04T11:28:16;102380.56;;;5.25;65.61
64632;BME280;58358;50.936;0.246;2023-03-04T11:30:41;102374.25;;;3.76;67.71
64632;BME280;58358;50.936;0.246;2023-03-04T11:33:12;102369.57;;;4.82;65.90
64632;BME280;58358;50.936;0.246;2023-03-04T11:35:33;102366.58;;;4.27;66.14
64632;BME280;58358;50.936;0.246;2023-03-04T11:38:03;102370.33;;;4.18;66.91
64632;BME280;58358;50.936;0.246;2023-03-04T11:40:28;102364.32;;;4.49;65.40
64632;BME280;58358;50.936;0.246;2023-03-04T11:42:50;102360.74;;;4.68;63.67
64632;BME280;58358;50.936;0.246;2023-03-04T11:45:14;102359.62;;;4.84;63.66
64632;BME280;58358;50.936;0.246;2023-03-04T11:47:48;102359.59;;;4.67;64.43
64632;BME280;58358;50.936;0.246;2023-03-04T11:50:15;102354.44;;;3.87;63.84
64632;BME280;58358;50.936;0.246;2023-03-04T11:52:40;102349.07;;;5.10;63.12
64632;BME280;58358;50.936;0.246;2023-03-04T11:55:04;102340.84;;;5.64;60.33
64632;BME280;58358;50.936;0.246;2023-03-04T11:57:28;102342.51;;;4.53;62.69
64632;BME280;58358;50.936;0.246;2023-03-04T11:59:59;102335.11;;;4.80;61.98
64632;BME280;58358;50.936;0.246;2023-03-04T12:02:14;102335.19;;;4.01;63.99
64632;BME280;58358;50.936;0.246;2023-03-04T12:07:12;102335.30;;;5.18;60.41
64632;BME280;58358;50.936;0.246;2023-03-04T12:09:39;102334.55;;;5.46;60.23
64632;BME280;58358;50.936;0.246;2023-03-04T12:11:59;102326.90;;;6.65;57.15
64632;BME280;58358;50.936;0.246;2023-03-04T12:14:24;102328.28;;;5.01;59.79
64632;BME280;58358;50.936;0.246;2023-03-04T12:17:04;102333.53;;;4.69;61.90
64632;BME280;58358;50.936;0.246;2023-03-04T12:19:18;102328.28;;;4.44;62.33
64632;BME280;58358;50.936;0.246;2023-03-04T12:21:49;102326.99;;;3.07;68.32
64632;BME280;58358;50.936;0.246;2023-03-04T12:26:29;102321.18;;;6.23;58.74
64632;BME280;58358;50.936;0.246;2023-03-04T12:28:55;102315.45;;;4.84;61.25
64632;BME280;58358;50.936;0.246;2023-03-04T12:31:31;102312.97;;;6.44;56.56
64632;BME280;58358;50.936;0.246;2023-03-04T12:33:51;102311.69;;;7.45;54.45
64632;BME280;58358;50.936;0.246;2023-03-04T12:36:12;102310.11;;;6.07;55.73
64632;BME280;58358;50.936;0.246;2023-03-04T12:38:46;102311.28;;;5.74;58.03
64632;BME280;58358;50.936;0.246;2023-03-04T12:41:05;102312.22;;;3.88;61.89
64632;BME280;58358;50.936;0.246;2023-03-04T12:43:35;102307.47;;;4.34;63.05
64632;BME280;58358;50.936;0.246;2023-03-04T12:45:56;102309.10;;;4.13;64.68
64632;BME280;58358;50.936;0.246;2023-03-04T12:48:22;102304.69;;;4.49;64.69
64632;BME280;58358;50.936;0.246;2023-03-04T12:50:41;102303.60;;;3.52;67.65
64632;BME280;58358;50.936;0.246;2023-03-04T12:53:13;102299.58;;;4.76;64.26
64632;BME280;58358;50.936;0.246;2023-03-04T12:55:35;102297.81;;;4.65;64.77
64632;BME280;58358;50.936;0.246;2023-03-04T12:57:56;102295.05;;;4.17;66.87
64632;BME280;58358;50.936;0.246;2023-03-04T13:00:27;102291.78;;;3.46;67.29